createdAt,value
2023-11-09T00:00:47.124Z,8.45
2023-11-09T00:03:32.583Z,7.55
2023-11-09T00:06:19.483Z,7.18
2023-11-09T00:09:05.346Z,7.95
2023-11-09T00:11:51.024Z,6.82
2023-11-09T00:14:36.824Z,6.60
2023-11-09T00:17:22.630Z,6.20
2023-11-09T00:20:09.258Z,5.80
2023-11-09T00:22:55.136Z,6.07
2023-11-09T00:25:40.911Z,5.55
2023-11-09T00:28:26.930Z,5.05
2023-11-09T00:31:12.807Z,6.28
2023-11-09T00:33:58.789Z,5.43
2023-11-09T00:36:44.861Z,4.53
2023-11-09T00:39:31.534Z,5.13
2023-11-09T00:42:17.184Z,6.13
2023-11-09T00:45:03.057Z,5.45
2023-11-09T00:47:49.572Z,6.35
2023-11-09T00:50:34.965Z,6.10
2023-11-09T00:53:21.146Z,6.22
2023-11-09T00:56:07.061Z,5.18
2023-11-09T00:58:52.648Z,6.72
2023-11-09T01:01:38.553Z,6.78
2023-11-09T01:04:26.257Z,5.63
2023-11-09T01:07:13.313Z,4.53
2023-11-09T01:09:59.285Z,6.05
2023-11-09T01:12:45.031Z,5.50
2023-11-09T01:15:30.590Z,5.13
2023-11-09T01:18:16.935Z,5.10
2023-11-09T01:21:02.526Z,4.18
2023-11-09T01:23:48.286Z,4.78
2023-11-09T01:26:33.788Z,6.78
2023-11-09T01:29:23.195Z,7.25
2023-11-09T01:32:08.844Z,5.95
2023-11-09T01:34:54.293Z,4.88
2023-11-09T01:37:40.335Z,5.43
2023-11-09T01:40:27.524Z,5.90
2023-11-09T01:43:13.828Z,6.38
2023-11-09T01:45:59.796Z,5.93
2023-11-09T01:48:45.230Z,6.20
2023-11-09T01:51:32.371Z,6.65
2023-11-09T01:54:20.469Z,6.00
2023-11-09T01:59:53.206Z,5.53
2023-11-09T02:02:38.948Z,4.05
2023-11-09T02:05:25.004Z,4.88
2023-11-09T02:08:11.903Z,5.35
2023-11-09T02:10:57.676Z,4.70
2023-11-09T02:13:43.221Z,5.50
2023-11-09T02:16:28.762Z,5.65
2023-11-09T02:19:19.872Z,5.90
2023-11-09T02:22:07.818Z,5.70
2023-11-09T02:24:57.430Z,5.90
2023-11-09T02:27:43.005Z,5.90
2023-11-09T02:30:29.170Z,6.88
2023-11-09T02:33:15.277Z,4.85
2023-11-09T02:36:01.123Z,5.43
2023-11-09T02:38:46.845Z,6.47
2023-11-09T02:41:32.597Z,5.93
2023-11-09T02:44:18.939Z,6.07
2023-11-09T02:47:04.647Z,6.00
2023-11-09T02:49:50.602Z,6.95
2023-11-09T02:52:36.204Z,7.25
2023-11-09T02:55:21.900Z,9.15
2023-11-09T02:58:08.481Z,8.40
2023-11-09T03:00:54.226Z,6.70
2023-11-09T03:03:40.024Z,6.18
2023-11-09T03:06:25.964Z,5.88
2023-11-09T03:09:13.501Z,6.38
2023-11-09T03:12:00.336Z,6.70
2023-11-09T03:14:45.642Z,6.85
2023-11-09T03:17:31.169Z,7.88
2023-11-09T03:20:17.470Z,7.57
2023-11-09T03:23:03.476Z,6.32
2023-11-09T03:25:49.217Z,7.28
2023-11-09T03:28:40.201Z,6.80
2023-11-09T03:31:26.127Z,6.60
2023-11-09T03:34:12.716Z,6.85
2023-11-09T03:36:58.766Z,6.97
2023-11-09T03:39:44.071Z,7.10
2023-11-09T03:42:29.709Z,8.00
2023-11-09T03:45:17.344Z,6.78
2023-11-09T03:48:02.984Z,6.28
2023-11-09T03:50:50.497Z,6.03
2023-11-09T03:53:36.137Z,6.07
2023-11-09T03:56:23.508Z,5.35
2023-11-09T03:59:09.269Z,6.65
2023-11-09T04:01:55.709Z,6.05
2023-11-09T04:04:41.410Z,5.85
2023-11-09T04:07:27.397Z,6.85
2023-11-09T04:10:15.555Z,7.50
2023-11-09T04:13:02.046Z,8.55
2023-11-09T04:15:47.800Z,10.35
2023-11-09T04:18:34.621Z,13.38
2023-11-09T04:21:20.300Z,13.18
2023-11-09T04:24:07.381Z,12.50
2023-11-09T04:26:55.073Z,11.10
2023-11-09T04:29:43.062Z,10.00
2023-11-09T04:35:18.965Z,7.75
2023-11-09T04:38:05.929Z,7.45
2023-11-09T04:41:05.743Z,8.90
2023-11-09T04:43:55.374Z,9.68
2023-11-09T04:46:42.331Z,8.43
2023-11-09T04:49:28.560Z,8.05
2023-11-09T04:52:16.580Z,7.85
2023-11-09T04:58:17.511Z,6.72
2023-11-09T05:01:22.153Z,6.50
2023-11-09T05:04:26.173Z,7.25
2023-11-09T05:07:11.978Z,7.97
2023-11-09T05:09:58.398Z,6.90
2023-11-09T05:12:44.303Z,5.97
2023-11-09T05:15:32.697Z,6.28
2023-11-09T05:18:21.833Z,6.47
2023-11-09T05:21:08.269Z,6.05
2023-11-09T05:23:54.168Z,6.43
2023-11-09T05:26:40.248Z,6.82
2023-11-09T05:29:25.601Z,7.43
2023-11-09T05:32:13.174Z,6.25
2023-11-09T05:34:58.640Z,6.60
2023-11-09T05:37:44.203Z,6.43
2023-11-09T05:40:29.841Z,6.53
2023-11-09T05:43:16.168Z,6.45
2023-11-09T05:46:01.974Z,7.45
2023-11-09T05:48:47.373Z,6.90
2023-11-09T05:51:33.451Z,6.70
2023-11-09T05:54:19.310Z,6.80
2023-11-09T05:57:05.645Z,6.25
2023-11-09T05:59:51.054Z,7.18
2023-11-09T06:02:36.902Z,6.43
2023-11-09T06:05:26.008Z,7.38
2023-11-09T06:08:12.284Z,7.53
2023-11-09T06:10:58.463Z,6.55
2023-11-09T06:13:44.088Z,6.28
2023-11-09T06:16:31.413Z,6.97
2023-11-09T06:19:18.884Z,7.03
2023-11-09T06:22:05.711Z,6.47
2023-11-09T06:24:51.030Z,7.20
2023-11-09T06:27:37.097Z,10.00
2023-11-09T06:30:22.735Z,10.20
2023-11-09T06:33:10.540Z,8.35
2023-11-09T06:35:58.165Z,8.02
2023-11-09T06:38:44.166Z,7.38
2023-11-09T06:41:30.338Z,8.35
2023-11-09T06:44:16.596Z,8.93
2023-11-09T06:47:02.856Z,8.90
2023-11-09T06:49:48.301Z,11.05
2023-11-09T06:52:33.818Z,8.30
2023-11-09T06:55:21.328Z,8.30
2023-11-09T06:58:06.737Z,8.52
2023-11-09T07:00:52.088Z,9.77
2023-11-09T07:03:37.492Z,8.43
2023-11-09T07:06:23.517Z,8.23
2023-11-09T07:09:08.841Z,7.63
2023-11-09T07:11:54.256Z,8.07
2023-11-09T07:14:39.816Z,7.80
2023-11-09T07:17:25.798Z,8.15
2023-11-09T07:20:12.341Z,7.68
2023-11-09T07:23:02.003Z,6.53
2023-11-09T07:25:48.051Z,8.48
2023-11-09T07:28:34.383Z,8.35
2023-11-09T07:31:20.343Z,6.00
2023-11-09T07:34:06.663Z,6.53
2023-11-09T07:36:52.768Z,8.13
2023-11-09T07:39:39.220Z,7.97
2023-11-09T07:42:25.038Z,9.48
2023-11-09T07:45:11.600Z,9.13
2023-11-09T07:47:57.462Z,8.90
2023-11-09T07:50:43.452Z,8.27
2023-11-09T07:53:29.371Z,10.05
2023-11-09T07:56:15.587Z,9.48
2023-11-09T07:59:01.292Z,10.63
2023-11-09T08:01:46.941Z,9.73
2023-11-09T08:04:32.503Z,10.20
2023-11-09T08:07:20.055Z,10.02
2023-11-09T08:10:05.551Z,7.85
2023-11-09T08:12:53.436Z,5.47
2023-11-09T08:15:38.918Z,6.38
2023-11-09T08:18:24.857Z,6.30
2023-11-09T08:21:11.151Z,4.70
2023-11-09T08:23:57.251Z,4.75
2023-11-09T08:26:45.132Z,4.05
2023-11-09T08:29:31.066Z,3.85
2023-11-09T08:32:17.634Z,3.40
2023-11-09T08:35:03.818Z,3.20
2023-11-09T08:37:49.636Z,2.38
2023-11-09T08:40:37.722Z,2.55
2023-11-09T08:43:23.474Z,2.40
2023-11-09T08:46:09.977Z,2.40
2023-11-09T08:48:55.998Z,1.98
2023-11-09T08:51:41.369Z,1.95
2023-11-09T08:54:27.844Z,2.10
2023-11-09T08:57:13.195Z,2.00
2023-11-09T09:00:01.560Z,2.13
2023-11-09T09:02:50.799Z,2.00
2023-11-09T09:05:38.533Z,2.05
2023-11-09T09:08:27.830Z,2.50
2023-11-09T09:11:15.195Z,2.17
2023-11-09T09:14:01.516Z,2.65
2023-11-09T09:16:47.793Z,2.28
2023-11-09T09:19:34.871Z,2.85
2023-11-09T09:22:20.739Z,3.58
2023-11-09T09:25:11.621Z,2.40
2023-11-09T09:27:57.417Z,3.00
2023-11-09T09:30:44.071Z,3.35
2023-11-09T09:33:30.147Z,3.10
2023-11-09T09:36:15.665Z,3.20
2023-11-09T09:39:00.975Z,3.22
2023-11-09T09:41:52.853Z,2.53
2023-11-09T09:44:39.010Z,2.80
2023-11-09T09:47:26.265Z,2.58
2023-11-09T09:50:12.737Z,2.60
2023-11-09T09:52:59.050Z,2.40
2023-11-09T09:55:44.708Z,2.22
2023-11-09T09:58:32.635Z,2.72
2023-11-09T10:01:21.035Z,2.58
2023-11-09T10:04:07.752Z,2.92
2023-11-09T10:06:53.334Z,2.63
2023-11-09T10:09:39.388Z,2.90
2023-11-09T10:12:25.003Z,3.10
2023-11-09T10:15:16.657Z,2.78
2023-11-09T10:18:03.262Z,3.22
2023-11-09T10:20:57.977Z,2.70
2023-11-09T10:23:53.291Z,2.40
2023-11-09T10:26:41.694Z,2.53
2023-11-09T10:29:28.842Z,3.33
2023-11-09T10:32:20.758Z,2.60
2023-11-09T10:35:06.693Z,2.88
2023-11-09T10:37:52.343Z,2.80
2023-11-09T10:40:39.175Z,2.70
2023-11-09T10:43:34.676Z,2.85
2023-11-09T10:46:21.132Z,2.53
2023-11-09T10:49:06.983Z,2.78
2023-11-09T10:51:55.540Z,2.75
2023-11-09T10:54:43.304Z,3.15
2023-11-09T10:57:29.330Z,3.17
2023-11-09T11:00:27.403Z,3.45
2023-11-09T11:03:39.217Z,2.75
2023-11-09T11:06:31.335Z,2.63
2023-11-09T11:09:26.848Z,2.67
2023-11-09T11:12:14.678Z,3.25
2023-11-09T11:15:01.720Z,2.90
2023-11-09T11:17:58.072Z,3.03
2023-11-09T11:20:52.495Z,3.30
2023-11-09T11:24:12.208Z,3.20
2023-11-09T11:27:21.151Z,2.60
2023-11-09T11:30:27.236Z,2.72
2023-11-09T11:33:17.910Z,3.10
2023-11-09T11:36:04.148Z,2.42
2023-11-09T11:39:10.836Z,2.92
2023-11-09T11:42:15.888Z,3.20
2023-11-09T11:45:01.858Z,2.90
2023-11-09T11:47:51.094Z,2.90
2023-11-09T11:50:36.995Z,3.00
2023-11-09T11:53:29.348Z,2.92
2023-11-09T11:56:21.453Z,2.97
2023-11-09T11:59:08.732Z,3.00
2023-11-09T12:01:56.879Z,2.97
2023-11-09T12:04:48.805Z,3.40
2023-11-09T12:07:38.157Z,2.85
2023-11-09T12:10:25.040Z,3.13
2023-11-09T12:13:11.862Z,3.83
2023-11-09T12:16:06.318Z,3.03
2023-11-09T12:18:58.382Z,3.03
2023-11-09T12:21:47.227Z,3.10
2023-11-09T12:24:33.541Z,2.72
2023-11-09T12:27:21.663Z,2.78
2023-11-09T12:30:07.606Z,2.80
2023-11-09T12:32:56.386Z,2.65
2023-11-09T12:36:02.075Z,2.40
2023-11-09T12:38:47.782Z,2.67
2023-11-09T12:41:34.231Z,3.20
2023-11-09T12:44:27.744Z,3.00
2023-11-09T12:47:21.858Z,2.70
2023-11-09T12:50:17.538Z,3.25
2023-11-09T12:53:04.038Z,3.25
2023-11-09T12:55:51.121Z,3.13
2023-11-09T12:58:41.901Z,3.50
2023-11-09T13:01:30.007Z,2.75
2023-11-09T13:04:22.732Z,2.92
2023-11-09T13:07:14.177Z,3.10
2023-11-09T13:10:18.780Z,3.97
2023-11-09T13:13:22.552Z,2.70
2023-11-09T13:16:15.556Z,3.53
2023-11-09T13:19:09.312Z,3.10
2023-11-09T13:22:00.958Z,3.53
2023-11-09T13:24:54.816Z,2.85
2023-11-09T13:27:40.620Z,3.45
2023-11-09T13:30:28.193Z,3.15
2023-11-09T13:33:29.350Z,3.13
2023-11-09T13:36:17.152Z,3.50
2023-11-09T13:39:23.031Z,3.20
2023-11-09T13:42:19.213Z,3.55
2023-11-09T13:45:25.198Z,3.70
2023-11-09T13:48:13.672Z,3.65
2023-11-09T13:51:01.304Z,3.47
2023-11-09T13:53:51.688Z,4.13
2023-11-09T13:56:56.657Z,3.47
2023-11-09T13:59:45.009Z,3.90
2023-11-09T14:02:33.176Z,3.28
2023-11-09T14:05:19.076Z,4.13
2023-11-09T14:08:10.556Z,3.90
2023-11-09T14:10:56.531Z,3.67
2023-11-09T14:13:47.764Z,4.75
2023-11-09T14:16:45.115Z,4.55
2023-11-09T14:19:36.333Z,3.67
2023-11-09T14:22:23.397Z,4.10
2023-11-09T14:25:11.240Z,4.95
2023-11-09T14:27:59.110Z,4.00
2023-11-09T14:30:49.371Z,4.30
2023-11-09T14:33:39.997Z,4.38
2023-11-09T14:36:28.143Z,4.90
2023-11-09T14:39:32.991Z,5.65
2023-11-09T14:42:18.817Z,6.60
2023-11-09T14:45:04.556Z,6.90
2023-11-09T14:47:50.811Z,6.85
2023-11-09T14:50:36.593Z,5.78
2023-11-09T14:53:34.239Z,5.38
2023-11-09T14:56:26.572Z,5.90
2023-11-09T15:02:00.877Z,5.40
2023-11-09T15:04:47.367Z,6.28
2023-11-09T15:07:42.045Z,8.00
2023-11-09T15:10:27.942Z,6.95
2023-11-09T15:13:13.641Z,7.78
2023-11-09T15:16:03.841Z,11.07
2023-11-09T15:18:52.238Z,11.88
2023-11-09T15:21:43.631Z,10.65
2023-11-09T15:24:32.113Z,17.65
2023-11-09T15:27:19.830Z,29.42
2023-11-09T15:30:06.364Z,20.70
2023-11-09T15:32:53.411Z,10.38
2023-11-09T15:35:43.010Z,11.48
2023-11-09T15:38:29.339Z,10.60
2023-11-09T15:41:21.000Z,9.82
2023-11-09T15:44:11.394Z,7.30
2023-11-09T15:46:58.682Z,7.25
2023-11-09T15:49:47.724Z,7.93
2023-11-09T15:52:34.710Z,8.45
2023-11-09T15:55:22.607Z,8.82
2023-11-09T16:00:58.126Z,9.52
2023-11-09T16:03:46.106Z,9.02
2023-11-09T16:06:34.023Z,9.05
2023-11-09T16:12:16.478Z,8.60
2023-11-09T16:15:02.586Z,9.52
2023-11-09T16:17:52.386Z,10.52
2023-11-09T16:21:05.591Z,11.77
2023-11-09T16:24:05.100Z,12.18
2023-11-09T16:26:58.386Z,11.40
2023-11-09T16:29:45.302Z,10.55
2023-11-09T16:32:31.711Z,9.75
2023-11-09T16:35:20.740Z,9.40
2023-11-09T16:40:52.252Z,7.95
2023-11-09T16:43:38.093Z,8.30
2023-11-09T16:46:24.949Z,8.00
2023-11-09T16:49:12.199Z,8.95
2023-11-09T16:51:58.184Z,9.90
2023-11-09T16:54:43.820Z,13.88
2023-11-09T16:57:29.326Z,14.75
2023-11-09T17:00:19.865Z,15.85
2023-11-09T17:03:05.832Z,14.23
2023-11-09T17:05:52.394Z,13.73
2023-11-09T17:08:39.068Z,14.65
2023-11-09T17:11:26.814Z,17.23
2023-11-09T17:14:12.566Z,18.15
2023-11-09T17:16:58.812Z,18.33
2023-11-09T17:19:44.721Z,18.73
2023-11-09T17:22:30.947Z,17.10
2023-11-09T17:25:16.308Z,16.00
2023-11-09T17:28:05.265Z,16.10
2023-11-09T17:30:51.331Z,16.58
2023-11-09T17:33:38.244Z,16.17
2023-11-09T17:36:24.304Z,17.58
2023-11-09T17:39:10.939Z,15.63
2023-11-09T17:41:57.845Z,16.67
2023-11-09T17:44:45.004Z,18.63
2023-11-09T17:47:31.721Z,18.83
2023-11-09T17:50:18.405Z,17.23
2023-11-09T17:53:06.270Z,19.33
2023-11-09T17:55:52.476Z,23.17
2023-11-09T17:58:40.322Z,24.42
2023-11-09T18:01:33.186Z,30.80
2023-11-09T18:04:20.503Z,34.42
2023-11-09T18:07:06.973Z,40.40
2023-11-09T18:09:53.788Z,39.55
2023-11-09T18:12:39.805Z,37.20
2023-11-09T18:15:25.610Z,30.67
2023-11-09T18:18:10.968Z,29.13
2023-11-09T18:21:01.257Z,44.55
2023-11-09T18:23:50.416Z,32.25
2023-11-09T18:26:35.993Z,29.40
2023-11-09T18:29:24.352Z,23.45
2023-11-09T18:32:13.277Z,20.73
2023-11-09T18:34:59.304Z,17.27
2023-11-09T18:37:45.540Z,15.60
2023-11-09T18:40:31.276Z,15.88
2023-11-09T18:43:17.632Z,15.02
2023-11-09T18:46:03.823Z,15.77
2023-11-09T18:48:49.913Z,16.58
2023-11-09T18:51:35.927Z,17.45
2023-11-09T18:54:21.880Z,15.20
2023-11-09T18:57:08.046Z,14.32
2023-11-09T18:59:54.253Z,13.32
2023-11-09T19:05:33.463Z,9.70
2023-11-09T19:08:21.199Z,15.88
2023-11-09T19:11:11.654Z,12.85
2023-11-09T19:13:58.528Z,10.30
2023-11-09T19:16:58.138Z,9.65
2023-11-09T19:22:55.936Z,8.52
2023-11-09T19:25:53.579Z,9.10
2023-11-09T19:28:39.500Z,9.88
2023-11-09T19:31:25.966Z,15.10
2023-11-09T19:34:11.848Z,15.10
2023-11-09T19:36:57.877Z,13.38
2023-11-09T19:39:43.937Z,9.68
2023-11-09T19:42:32.213Z,9.52
2023-11-09T19:45:23.324Z,11.95
2023-11-09T19:48:25.338Z,12.52
2023-11-09T19:51:15.612Z,11.82
2023-11-09T19:54:01.751Z,16.33
2023-11-09T19:56:47.670Z,16.27
2023-11-09T19:59:33.472Z,34.03
2023-11-09T20:02:21.500Z,35.42
2023-11-09T20:05:08.309Z,34.90
2023-11-09T20:07:57.161Z,31.52
2023-11-09T20:10:43.063Z,32.80
2023-11-09T20:13:29.469Z,35.95
2023-11-09T20:16:16.938Z,34.03
2023-11-09T20:19:04.266Z,30.35
2023-11-09T20:21:50.323Z,25.23
2023-11-09T20:24:37.166Z,25.00
2023-11-09T20:27:23.388Z,19.48
2023-11-09T20:30:14.710Z,21.60
2023-11-09T20:33:02.319Z,26.38
2023-11-09T20:40:55.275Z,40.05
2023-11-09T20:43:42.610Z,33.30
2023-11-09T20:46:37.632Z,45.97
2023-11-09T20:49:23.692Z,38.75
2023-11-09T20:52:15.737Z,44.95
2023-11-09T20:55:04.443Z,38.30
2023-11-09T20:57:53.648Z,42.58
2023-11-09T21:00:44.314Z,42.47
2023-11-09T21:03:36.951Z,45.05
2023-11-09T21:06:25.679Z,44.05
2023-11-09T21:09:11.323Z,45.50
2023-11-09T21:11:58.541Z,49.53
2023-11-09T21:14:52.010Z,41.03
2023-11-09T21:17:40.937Z,42.47
2023-11-09T21:23:12.231Z,33.38
2023-11-09T21:26:01.061Z,33.65
2023-11-09T21:28:46.961Z,30.10
2023-11-09T21:31:33.253Z,30.05
2023-11-09T21:34:23.271Z,31.70
2023-11-09T21:37:09.354Z,27.85
2023-11-09T21:39:55.404Z,28.23
2023-11-09T21:42:43.126Z,33.60
2023-11-09T21:45:30.803Z,33.90
2023-11-09T21:48:18.151Z,34.72
2023-11-09T21:51:04.070Z,33.30
2023-11-09T21:53:51.261Z,35.20
2023-11-09T21:56:41.668Z,32.92
2023-11-09T21:59:28.222Z,29.88
2023-11-09T22:02:32.910Z,25.40
2023-11-09T22:05:20.726Z,22.40
2023-11-09T22:08:08.790Z,21.05
2023-11-09T22:10:56.011Z,24.00
2023-11-09T22:13:42.565Z,24.33
2023-11-09T22:16:29.126Z,25.42
2023-11-09T22:19:14.568Z,23.20
2023-11-09T22:22:00.888Z,22.67
2023-11-09T22:24:46.963Z,31.30
2023-11-09T22:27:33.522Z,29.38
2023-11-09T22:30:20.624Z,24.45
2023-11-09T22:33:06.342Z,21.65
2023-11-09T22:35:52.298Z,19.52
2023-11-09T22:38:39.950Z,19.70
2023-11-09T22:41:25.294Z,16.98
2023-11-09T22:44:10.822Z,17.25
2023-11-09T22:46:56.587Z,17.65
2023-11-09T22:49:42.047Z,17.52
2023-11-09T22:52:27.818Z,19.52
2023-11-09T22:55:13.599Z,18.85
2023-11-09T22:57:59.300Z,20.63
2023-11-09T23:00:51.841Z,20.45
2023-11-09T23:03:38.212Z,21.02
2023-11-09T23:06:24.748Z,18.20
2023-11-09T23:09:13.422Z,19.10
2023-11-09T23:11:59.278Z,19.25
2023-11-09T23:14:44.759Z,21.30
2023-11-09T23:17:30.315Z,20.20
2023-11-09T23:20:16.227Z,23.35
2023-11-09T23:23:02.175Z,22.77
2023-11-09T23:25:48.135Z,19.90
2023-11-09T23:28:33.782Z,15.20
2023-11-09T23:31:19.371Z,13.45
2023-11-09T23:34:05.464Z,12.63
2023-11-09T23:36:51.388Z,12.38
2023-11-09T23:39:36.931Z,11.68
2023-11-09T23:42:22.566Z,11.43
2023-11-09T23:45:08.727Z,11.68
2023-11-09T23:47:54.754Z,11.05
2023-11-09T23:50:41.734Z,10.00
2023-11-09T23:53:32.344Z,9.90
2023-11-09T23:56:18.252Z,10.02
2023-11-09T23:59:04.780Z,11.32
